Terminal Aerodrome Forecast
Issued by NWS

Home | Current Version | Previous Version | Text Only | Print | Product List | Glossary On
Versions: 1 2 3 4 5 6 7 8 9 10 11 12 13 14 15 16 17 18 19 20 21 22 23 24 25 26 27 28 29 30 31 32 33 34 35 36 37 38
000
FTUS44 KHGX 281140
TAFCXO
TAF
KCXO 281140Z 2812/0112 08007KT P6SM SCT030 OVC040
     FM281800 07008KT P6SM SCT015 BKN025
     FM010200 09003KT 5SM BR VCSH SCT008 BKN015 OVC025
     FM010600 VRB03KT 1SM BR VCSH OVC012
     FM010900 00000KT 1/2SM FG VCSH OVC007=

USA.gov is the U.S. government's official web portal to all federal, state and local government web resources and services.